Time;durP1;ratioP1;P1;durP2;ratioP2;P2;SDS_P1;SDS_P2;PMS_P1;PMS_P2;Temp;Humidity;BMP_temperature;BMP_pressure;BME280_temperature;BME280_humidity;BME280_pressure;Samples;Min_cycle;Max_cycle;Signal;HPM_P1;HPM_P2
2022/10/03 00:01:39;;;;;;;6.13;1.77;;;11.00;99.90;;;;;;5027892;28;20273;-50
2022/10/03 00:04:06;;;;;;;6.73;2.07;;;11.00;99.90;;;;;;5014386;28;20668;-50
2022/10/03 00:06:53;;;;;;;6.10;1.87;;;10.80;99.90;;;;;;5031369;28;20560;-50
2022/10/03 00:09:26;;;;;;;5.57;2.17;;;10.90;99.90;;;;;;5027880;28;20204;-51
2022/10/03 00:12:03;;;;;;;5.57;2.20;;;11.00;99.90;;;;;;5028140;28;20234;-51
2022/10/03 00:14:56;;;;;;;6.67;2.20;;;11.10;99.90;;;;;;5023254;28;20201;-52
2022/10/03 00:17:45;;;;;;;6.63;2.40;;;11.00;99.90;;;;;;5026961;28;20554;-51
2022/10/03 00:20:30;;;;;;;7.37;2.60;;;11.10;99.50;;;;;;5031648;28;20203;-52
2022/10/03 00:23:11;;;;;;;5.63;2.23;;;11.10;1.00;;;;;;5025435;28;20217;-52
2022/10/03 00:25:56;;;;;;;5.53;1.80;;;11.10;1.00;;;;;;5027970;28;20196;-51
2022/10/03 00:28:41;;;;;;;8.80;2.40;;;11.00;1.00;;;;;;5027013;28;20201;-51
2022/10/03 00:31:22;;;;;;;8.77;2.20;;;10.90;1.00;;;;;;5030003;28;20205;-52
2022/10/03 00:34:26;;;;;;;3.97;1.87;;;11.00;99.90;;;;;;5034940;28;20296;-50
2022/10/03 00:37:19;;;;;;;4.07;2.00;;;11.00;99.90;;;;;;5015834;28;20203;-50
2022/10/03 00:40:17;;;;;;;3.50;1.73;;;11.00;99.90;;;;;;5026541;28;20211;-51
2022/10/03 00:43:03;;;;;;;5.43;2.60;;;11.00;81.50;;;;;;5017107;28;20669;-50
2022/10/03 00:45:57;;;;;;;7.73;2.33;;;10.90;99.90;;;;;;5025786;28;20208;-51
2022/10/03 00:48:43;;;;;;;6.83;1.93;;;10.80;99.90;;;;;;5028229;28;20206;-51
2022/10/03 00:51:44;;;;;;;7.50;2.70;;;10.70;99.90;;;;;;5023181;28;20204;-51
2022/10/03 00:54:46;;;;;;;6.93;2.10;;;10.80;99.90;;;;;;5025805;28;20248;-51
2022/10/03 00:57:36;;;;;;;4.77;2.00;;;10.80;99.90;;;;;;5020176;28;20224;-53
2022/10/03 01:00:15;;;;;;;5.93;2.37;;;10.80;99.90;;;;;;5028867;28;20268;-50
2022/10/03 01:02:54;;;;;;;6.70;2.50;;;10.80;99.90;;;;;;5020429;28;20262;-50
2022/10/03 01:05:37;;;;;;;5.57;2.20;;;10.90;99.90;;;;;;5019442;28;20217;-51
2022/10/03 01:08:42;;;;;;;6.10;2.60;;;10.80;99.90;;;;;;5024176;28;20207;-50
2022/10/03 01:11:27;;;;;;;5.50;2.60;;;10.80;99.90;;;;;;5021609;28;20205;-51
2022/10/03 01:14:21;;;;;;;6.03;2.17;;;10.80;99.90;;;;;;5017295;28;20200;-50
2022/10/03 01:17:00;;;;;;;6.63;1.77;;;10.80;99.90;;;;;;5024551;28;20285;-53
2022/10/03 01:19:52;;;;;;;4.30;1.80;;;10.80;99.90;;;;;;5030278;28;20653;-52
2022/10/03 01:22:50;;;;;;;4.73;2.20;;;10.80;99.90;;;;;;5019820;28;20685;-51
2022/10/03 01:25:36;;;;;;;6.50;1.93;;;10.90;99.90;;;;;;5029966;28;20599;-50
2022/10/03 01:31:11;;;;;;;6.30;1.90;;;10.80;1.00;;;;;;5013436;28;20198;-50
2022/10/03 01:34:14;;;;;;;4.97;1.47;;;10.80;1.00;;;;;;5019864;28;20676;-51
2022/10/03 01:37:01;;;;;;;5.53;1.70;;;10.80;1.00;;;;;;5025856;28;20641;-50
2022/10/03 01:39:33;;;;;;;8.47;2.33;;;10.80;1.00;;;;;;5027281;28;20557;-51
2022/10/03 01:42:34;;;;;;;2.63;1.57;;;10.70;1.00;;;;;;5023106;28;20562;-51
2022/10/03 01:45:24;;;;;;;5.67;1.67;;;10.70;1.00;;;;;;5016872;28;20203;-51
2022/10/03 01:48:10;;;;;;;3.23;1.80;;;10.70;1.00;;;;;;5024634;28;20613;-51
2022/10/03 01:50:56;;;;;;;3.07;1.43;;;10.60;1.00;;;;;;5028364;28;20210;-51
2022/10/03 01:53:40;;;;;;;3.20;1.50;;;10.50;99.90;;;;;;5020072;28;20245;-50
2022/10/03 01:56:10;;;;;;;4.17;1.77;;;10.20;99.90;;;;;;5016634;28;20198;-51
2022/10/03 01:58:48;;;;;;;10.07;1.87;;;10.40;99.90;;;;;;5015420;28;20208;-51
2022/10/03 02:01:30;;;;;;;6.83;2.53;;;10.50;99.90;;;;;;5022273;28;20219;-51
2022/10/03 02:04:05;;;;;;;6.23;1.50;;;10.50;99.90;;;;;;5021525;28;20670;-50
2022/10/03 02:06:57;;;;;;;7.77;2.23;;;10.40;99.90;;;;;;5025485;28;20687;-54
2022/10/03 02:09:35;;;;;;;4.70;1.40;;;10.40;99.90;;;;;;5018623;28;20224;-51
2022/10/03 02:12:16;;;;;;;6.00;1.90;;;10.40;99.90;;;;;;5011912;28;20723;-52
2022/10/03 02:14:55;;;;;;;3.73;1.63;;;10.40;99.90;;;;;;5015241;28;20194;-50
2022/10/03 02:17:29;;;;;;;5.00;1.73;;;10.50;99.90;;;;;;5012259;28;20207;-53
2022/10/03 02:20:06;;;;;;;5.57;1.93;;;10.40;99.90;;;;;;5011988;28;20195;-51
2022/10/03 02:22:41;;;;;;;7.07;1.97;;;10.50;99.90;;;;;;5016476;28;20226;-52
2022/10/03 02:25:21;;;;;;;4.00;1.70;;;10.50;99.90;;;;;;5011056;28;20202;-51
2022/10/03 02:28:06;;;;;;;7.57;2.23;;;10.40;99.90;;;;;;5016324;28;20258;-51
2022/10/03 02:30:46;;;;;;;8.30;2.13;;;10.50;99.90;;;;;;5018837;28;20280;-51
2022/10/03 02:33:45;;;;;;;4.77;1.70;;;10.60;99.90;;;;;;5014892;28;20209;-51
2022/10/03 02:36:21;;;;;;;4.90;2.03;;;10.50;99.90;;;;;;5018235;28;20646;-52
2022/10/03 02:39:12;;;;;;;5.57;2.10;;;10.40;99.90;;;;;;5012441;28;20230;-52
2022/10/03 02:42:03;;;;;;;6.37;2.60;;;10.10;99.90;;;;;;5020175;28;20194;-50
2022/10/03 02:44:48;;;;;;;8.07;1.97;;;10.20;99.90;;;;;;5015486;28;20422;-53
2022/10/03 02:47:36;;;;;;;9.33;2.50;;;10.40;99.90;;;;;;5015827;28;20206;-52
2022/10/03 02:50:32;;;;;;;3.87;1.90;;;10.40;99.90;;;;;;5015893;28;20631;-51
2022/10/03 02:53:40;;;;;;;6.10;2.00;;;10.40;99.90;;;;;;5015099;28;20600;-52
2022/10/03 02:56:32;;;;;;;7.80;2.13;;;10.40;99.90;;;;;;5015284;28;20647;-52
2022/10/03 02:59:27;;;;;;;8.17;2.07;;;10.40;99.90;;;;;;5020818;28;20213;-52
2022/10/03 03:02:18;;;;;;;7.13;1.90;;;10.40;99.90;;;;;;5015804;28;20220;-52
2022/10/03 03:05:26;;;;;;;6.37;1.90;;;10.40;99.90;;;;;;5018346;28;20210;-51
2022/10/03 03:08:11;;;;;;;7.37;2.30;;;10.50;99.90;;;;;;5012832;28;20620;-51
2022/10/03 03:11:15;;;;;;;6.70;2.03;;;10.50;20.10;;;;;;5016974;28;20202;-51
2022/10/03 03:14:18;;;;;;;5.23;2.50;;;10.50;99.90;;;;;;5014549;28;20303;-51
2022/10/03 03:17:00;;;;;;;9.23;2.33;;;10.50;99.90;;;;;;5017627;28;20200;-50
2022/10/03 03:19:35;;;;;;;4.07;2.50;;;10.50;99.90;;;;;;5013148;28;20680;-51
2022/10/03 03:22:38;;;;;;;3.73;2.10;;;10.40;99.90;;;;;;5015552;28;20315;-51
2022/10/03 03:25:34;;;;;;;8.10;1.97;;;10.40;99.90;;;;;;5015980;28;20565;-50
2022/10/03 03:28:31;;;;;;;7.43;2.07;;;10.50;99.90;;;;;;5015944;28;20513;-51
2022/10/03 03:31:09;;;;;;;5.27;2.27;;;10.30;99.90;;;;;;5021015;28;20206;-50
2022/10/03 03:33:50;;;;;;;4.83;2.30;;;10.40;99.90;;;;;;5022259;28;20236;-50
2022/10/03 03:36:32;;;;;;;5.90;2.33;;;10.40;24.40;;;;;;5019873;28;20300;-51
2022/10/03 03:39:22;;;;;;;5.83;2.40;;;10.40;99.90;;;;;;5014301;28;20217;-53
2022/10/03 03:42:21;;;;;;;4.47;1.97;;;10.40;99.90;;;;;;5017981;28;20200;-52
2022/10/03 03:45:12;;;;;;;6.77;2.20;;;10.20;99.90;;;;;;5017928;28;20283;-50
2022/10/03 03:48:11;;;;;;;6.20;2.10;;;10.30;99.90;;;;;;5022084;28;20321;-53
2022/10/03 03:50:58;;;;;;;5.40;2.20;;;10.30;99.90;;;;;;5017244;28;20198;-52
2022/10/03 03:53:56;;;;;;;5.20;2.87;;;10.30;99.90;;;;;;5019210;28;20237;-52
2022/10/03 03:56:29;;;;;;;6.30;2.50;;;10.30;99.90;;;;;;5016281;28;20201;-52
2022/10/03 03:59:26;;;;;;;6.43;2.00;;;10.20;99.90;;;;;;5015306;28;20239;-57
2022/10/03 04:02:26;;;;;;;8.80;2.30;;;10.20;99.90;;;;;;5026347;28;20239;-53
2022/10/03 04:05:31;;;;;;;6.40;2.47;;;10.30;99.90;;;;;;5029945;28;20229;-51
2022/10/03 04:08:20;;;;;;;3.67;2.10;;;10.10;99.90;;;;;;5028784;28;20539;-50
2022/10/03 04:10:58;;;;;;;6.13;3.37;;;10.00;99.90;;;;;;5016190;28;20225;-50
2022/10/03 04:13:40;;;;;;;9.50;4.40;;;10.10;99.90;;;;;;5023600;28;20217;-50
2022/10/03 04:19:27;;;;;;;23.63;12.10;;;9.80;99.90;;;;;;5020064;28;20202;-50
2022/10/03 04:22:10;;;;;;;27.93;14.30;;;9.70;99.90;;;;;;5026085;28;20294;-50
2022/10/03 04:25:04;;;;;;;32.07;16.67;;;9.50;99.90;;;;;;5027815;28;20202;-51
2022/10/03 04:27:57;;;;;;;24.97;14.33;;;9.70;99.90;;;;;;5017911;28;20220;-50
2022/10/03 04:30:54;;;;;;;28.43;14.07;;;9.60;99.90;;;;;;5015313;28;20202;-51
2022/10/03 04:33:56;;;;;;;27.23;14.03;;;9.70;99.90;;;;;;5024881;28;20216;-52
2022/10/03 04:36:47;;;;;;;24.77;12.77;;;9.80;99.90;;;;;;5019467;28;20298;-51
2022/10/03 04:39:41;;;;;;;21.63;12.13;;;9.80;99.90;;;;;;5024957;28;20190;-54
2022/10/03 04:42:25;;;;;;;17.77;11.30;;;9.70;99.90;;;;;;5020154;28;20285;-51
2022/10/03 04:45:11;;;;;;;22.83;12.00;;;9.80;99.90;;;;;;5019941;28;20718;-51
2022/10/03 04:47:42;;;;;;;18.60;10.07;;;9.90;99.90;;;;;;5023693;28;20230;-51
2022/10/03 04:50:29;;;;;;;21.10;10.73;;;9.90;99.90;;;;;;5021404;28;20215;-51
2022/10/03 04:53:07;;;;;;;16.03;10.03;;;9.80;99.90;;;;;;5028800;28;20231;-51
2022/10/03 04:56:11;;;;;;;16.70;8.17;;;9.90;99.90;;;;;;5029376;28;20204;-51
2022/10/03 04:58:40;;;;;;;14.00;6.87;;;9.90;99.90;;;;;;5018963;28;20193;-50
2022/10/03 05:01:32;;;;;;;16.23;6.70;;;9.90;99.90;;;;;;5019248;28;20227;-51
2022/10/03 05:04:09;;;;;;;11.03;6.13;;;9.70;99.90;;;;;;5014948;28;20644;-51
2022/10/03 05:07:00;;;;;;;12.60;5.70;;;9.90;99.90;;;;;;5027134;28;20207;-52
2022/10/03 05:09:38;;;;;;;6.70;4.43;;;9.90;99.90;;;;;;5024018;28;20556;-52
2022/10/03 05:12:28;;;;;;;12.87;4.50;;;10.00;99.90;;;;;;5017620;28;20211;-52
2022/10/03 05:15:20;;;;;;;7.13;3.30;;;10.00;99.90;;;;;;5019458;28;20212;-52
2022/10/03 05:18:09;;;;;;;11.87;3.73;;;10.00;40.80;;;;;;5023954;28;20197;-52
2022/10/03 05:21:13;;;;;;;5.83;3.20;;;10.00;99.90;;;;;;5024812;28;20192;-52
2022/10/03 05:24:14;;;;;;;5.13;3.20;;;9.70;99.90;;;;;;5017789;28;20239;-52
2022/10/03 05:27:00;;;;;;;6.10;3.30;;;9.90;99.90;;;;;;5017134;28;20657;-51
2022/10/03 05:29:35;;;;;;;7.23;2.77;;;9.90;99.90;;;;;;5023955;28;20289;-52
2022/10/03 05:32:30;;;;;;;6.00;2.97;;;9.80;99.90;;;;;;5024041;28;20747;-52
2022/10/03 05:35:16;;;;;;;8.23;3.63;;;9.70;99.90;;;;;;5028170;28;20199;-52
2022/10/03 05:38:04;;;;;;;9.17;3.17;;;9.80;99.90;;;;;;5023990;28;20924;-52
2022/10/03 05:40:38;;;;;;;7.57;3.20;;;9.80;99.90;;;;;;5013011;28;20609;-52
2022/10/03 05:43:39;;;;;;;8.87;3.10;;;9.90;99.90;;;;;;4661274;28;10000017;-51
2022/10/03 05:46:43;;;;;;;8.03;2.70;;;9.90;99.90;;;;;;5013313;28;20193;-53
2022/10/03 05:49:41;;;;;;;5.10;2.80;;;9.90;99.90;;;;;;5018064;28;20301;-54
2022/10/03 05:52:49;;;;;;;8.87;3.37;;;9.80;99.90;;;;;;5006347;28;20217;-53
2022/10/03 05:55:35;;;;;;;10.83;3.00;;;9.90;99.90;;;;;;5012412;28;20292;-51
2022/10/03 05:58:32;;;;;;;6.00;3.80;;;9.90;99.90;;;;;;5018364;28;20193;-51
2022/10/03 06:01:30;;;;;;;8.67;3.33;;;9.90;99.90;;;;;;5012378;28;20254;-52
2022/10/03 06:04:34;;;;;;;6.90;3.53;;;9.90;99.90;;;;;;5023769;28;20879;-52
2022/10/03 06:07:25;;;;;;;6.23;3.40;;;9.90;99.90;;;;;;5023919;28;20640;-51
2022/10/03 06:10:24;;;;;;;5.50;3.87;;;10.00;99.90;;;;;;5018745;28;20279;-51
2022/10/03 06:13:03;;;;;;;9.87;4.87;;;9.90;99.90;;;;;;5015288;28;20219;-52
2022/10/03 06:15:53;;;;;;;12.87;5.67;;;10.00;99.90;;;;;;5014317;28;20839;-51
2022/10/03 06:18:45;;;;;;;9.20;5.00;;;10.00;99.90;;;;;;5023296;28;20194;-52
2022/10/03 06:21:18;;;;;;;14.37;5.40;;;10.00;99.90;;;;;;5018334;28;20209;-52
2022/10/03 06:23:57;;;;;;;10.33;5.07;;;10.00;99.90;;;;;;5022741;28;20213;-50
2022/10/03 06:26:29;;;;;;;10.10;4.70;;;10.10;99.90;;;;;;5013549;28;20574;-51
2022/10/03 06:29:01;;;;;;;9.93;5.00;;;10.10;99.90;;;;;;5011893;28;20314;-49
2022/10/03 06:31:49;;;;;;;8.10;4.40;;;10.10;99.90;;;;;;5019606;28;20201;-50
2022/10/03 06:34:34;;;;;;;8.10;4.17;;;10.00;99.90;;;;;;5016492;28;20754;-51
2022/10/03 06:37:27;;;;;;;8.77;3.70;;;10.00;99.90;;;;;;5015547;28;20197;-51
2022/10/03 06:40:15;;;;;;;7.50;3.80;;;10.20;99.90;;;;;;5015017;28;20201;-50
2022/10/03 06:42:50;;;;;;;8.23;3.53;;;10.30;99.90;;;;;;5014714;28;21499;-52
2022/10/03 06:45:59;;;;;;;7.57;3.17;;;10.40;99.90;;;;;;5016398;28;20196;-50
2022/10/03 06:48:45;;;;;;;7.83;3.70;;;10.50;99.90;;;;;;5017070;28;20232;-50
2022/10/03 06:51:38;;;;;;;7.23;3.50;;;10.60;99.90;;;;;;5021112;28;20234;-51
2022/10/03 06:54:34;;;;;;;6.20;3.00;;;10.70;99.90;;;;;;5023964;28;20240;-51
2022/10/03 06:57:28;;;;;;;8.83;2.90;;;10.60;99.90;;;;;;5024411;28;20811;-51
2022/10/03 07:00:05;;;;;;;9.00;3.07;;;10.70;99.90;;;;;;5017380;28;20562;-51
2022/10/03 07:02:59;;;;;;;6.33;3.00;;;10.80;99.90;;;;;;5016449;28;20246;-51
2022/10/03 07:05:47;;;;;;;9.93;3.20;;;10.90;99.90;;;;;;5016099;28;20215;-52
2022/10/03 07:09:12;;;;;;;8.60;3.60;;;11.00;99.90;;;;;;5017542;28;20193;-51
2022/10/03 07:12:26;;;;;;;4.13;2.90;;;11.20;99.90;;;;;;4979394;28;20976;-52
2022/10/03 07:15:35;;;;;;;5.17;3.00;;;11.40;99.90;;;;;;5005781;28;20223;-51
2022/10/03 07:18:40;;;;;;;8.87;3.20;;;11.50;99.90;;;;;;5018302;28;20663;-51
2022/10/03 07:21:38;;;;;;;6.80;3.00;;;11.70;99.90;;;;;;5015421;28;20199;-51
2022/10/03 07:24:24;;;;;;;8.23;3.07;;;11.90;99.90;;;;;;5015931;28;20647;-51
2022/10/03 07:27:08;;;;;;;8.90;3.30;;;12.10;99.90;;;;;;5011178;28;20211;-51
2022/10/03 07:30:08;;;;;;;6.53;3.03;;;12.00;99.90;;;;;;5019576;28;20230;-50
2022/10/03 07:33:06;;;;;;;6.37;3.03;;;12.20;99.90;;;;;;5012938;28;20571;-52
2022/10/03 07:38:57;;;;;;;7.27;2.90;;;12.40;99.90;;;;;;5016718;28;20626;-51
2022/10/03 07:41:42;;;;;;;6.43;2.50;;;12.50;99.90;;;;;;5009485;28;20252;-55
2022/10/03 07:44:28;;;;;;;6.67;2.70;;;12.50;99.90;;;;;;5010463;28;20224;-51
2022/10/03 07:47:10;;;;;;;10.47;3.07;;;12.50;99.90;;;;;;5013007;28;20205;-52
2022/10/03 07:49:48;;;;;;;7.50;2.47;;;12.50;99.90;;;;;;5016721;28;20568;-51
2022/10/03 07:52:46;;;;;;;8.10;2.70;;;12.50;99.90;;;;;;5020358;28;20219;-52
2022/10/03 07:55:34;;;;;;;8.30;3.27;;;12.60;99.90;;;;;;5012750;28;20205;-50
2022/10/03 07:58:25;;;;;;;7.50;2.67;;;12.80;99.90;;;;;;5004703;28;20200;-51
2022/10/03 08:01:16;;;;;;;11.30;3.17;;;13.00;99.90;;;;;;5015781;28;20197;-51
2022/10/03 08:03:43;;;;;;;6.23;2.73;;;13.10;99.90;;;;;;5020434;28;20204;-51
2022/10/03 08:06:17;;;;;;;5.70;2.30;;;13.30;99.90;;;;;;5017506;28;20247;-52
2022/10/03 08:09:21;;;;;;;6.07;2.77;;;13.50;99.90;;;;;;5014034;28;20193;-50
2022/10/03 08:12:13;;;;;;;7.70;2.40;;;13.50;30.00;;;;;;5018479;28;20652;-52
2022/10/03 08:15:07;;;;;;;7.90;3.47;;;13.50;1.00;;;;;;5009270;28;20213;-51
2022/10/03 08:17:57;;;;;;;3.80;2.40;;;13.80;1.00;;;;;;5024452;28;20232;-52
2022/10/03 08:20:59;;;;;;;5.83;2.33;;;14.10;1.00;;;;;;5027569;28;20209;-51
2022/10/03 08:23:38;;;;;;;5.63;2.50;;;14.40;1.00;;;;;;5014406;28;20221;-52
2022/10/03 08:26:27;;;;;;;6.43;2.80;;;14.50;1.00;;;;;;5014875;28;20201;-53
2022/10/03 08:29:12;;;;;;;6.63;1.77;;;14.70;1.00;;;;;;5022760;28;20652;-52
2022/10/03 08:31:59;;;;;;;6.67;2.00;;;15.00;1.00;;;;;;5017388;28;20561;-53
2022/10/03 08:34:47;;;;;;;5.77;1.83;;;15.20;9.00;;;;;;5016586;28;20223;-52
2022/10/03 08:37:33;;;;;;;4.73;1.90;;;15.70;1.00;;;;;;5016712;28;20210;-58
2022/10/03 08:40:34;;;;;;;4.77;1.80;;;15.70;1.00;;;;;;5020388;28;20284;-58
2022/10/03 08:43:32;;;;;;;9.77;2.10;;;15.70;1.00;;;;;;5031366;28;20204;-59
2022/10/03 08:46:21;;;;;;;4.77;1.87;;;16.00;99.90;;;;;;5016223;28;20555;-52
2022/10/03 08:49:09;;;;;;;6.13;2.17;;;15.70;1.00;;;;;;5023857;28;20590;-52
2022/10/03 08:52:06;;;;;;;5.60;2.27;;;15.50;1.00;;;;;;5016793;28;20200;-52
2022/10/03 08:55:12;;;;;;;4.33;2.00;;;15.50;49.20;;;;;;5020037;28;20238;-52
2022/10/03 08:58:03;;;;;;;5.87;1.97;;;15.50;99.90;;;;;;5031670;28;20212;-52
2022/10/03 09:00:51;;;;;;;6.83;2.97;;;15.50;99.90;;;;;;5018897;28;20199;-52
2022/10/03 09:03:52;;;;;;;8.23;2.07;;;15.60;1.00;;;;;;5020502;28;20212;-52
2022/10/03 09:06:25;;;;;;;5.80;2.07;;;15.60;99.90;;;;;;5019083;28;20643;-51
2022/10/03 09:09:01;;;;;;;7.80;1.83;;;15.50;1.00;;;;;;5020479;28;20227;-51
2022/10/03 09:11:58;;;;;;;5.57;1.90;;;15.70;68.60;;;;;;5012817;28;20207;-52
2022/10/03 09:15:03;;;;;;;6.00;2.40;;;15.70;2.80;;;;;;5010563;28;20217;-51
2022/10/03 09:17:51;;;;;;;6.10;2.40;;;15.90;1.00;;;;;;5019258;28;20196;-49
2022/10/03 09:20:50;;;;;;;9.83;2.70;;;15.90;99.90;;;;;;5020599;28;20208;-51
2022/10/03 09:23:52;;;;;;;4.60;2.13;;;16.00;1.00;;;;;;5015774;28;20210;-51
2022/10/03 09:26:36;;;;;;;4.30;2.07;;;15.70;1.00;;;;;;5026406;28;20206;-50
2022/10/03 09:29:24;;;;;;;5.80;2.10;;;15.60;1.00;;;;;;5022986;28;20206;-52
2022/10/03 09:32:19;;;;;;;6.03;2.03;;;15.70;1.00;;;;;;5028236;28;20566;-52
2022/10/03 09:34:49;;;;;;;5.73;2.27;;;15.60;1.00;;;;;;5016599;28;20214;-52
2022/10/03 09:37:32;;;;;;;5.60;1.93;;;15.70;1.00;;;;;;5024649;28;20208;-52
2022/10/03 09:40:16;;;;;;;6.93;1.80;;;16.10;1.00;;;;;;5034388;28;20209;-51
2022/10/03 09:43:04;;;;;;;6.60;1.20;;;16.20;1.00;;;;;;5025789;28;20198;-51
2022/10/03 09:45:50;;;;;;;5.80;1.77;;;16.20;1.00;;;;;;5029525;28;20199;-52
2022/10/03 09:48:23;;;;;;;6.13;1.20;;;16.00;1.00;;;;;;5018113;28;20202;-51
2022/10/03 09:51:05;;;;;;;8.53;2.40;;;15.90;99.90;;;;;;5029003;28;20315;-51
2022/10/03 09:53:59;;;;;;;3.30;1.30;;;15.90;99.90;;;;;;5026877;28;20591;-50
2022/10/03 09:56:43;;;;;;;6.03;1.20;;;15.90;1.00;;;;;;5018337;28;20209;-51
2022/10/03 09:59:32;;;;;;;3.73;1.40;;;16.20;99.90;;;;;;5018675;28;20253;-51
2022/10/03 10:02:13;;;;;;;3.97;1.57;;;16.20;1.00;;;;;;5018831;28;20604;-51
2022/10/03 10:05:23;;;;;;;7.50;1.90;;;16.30;1.00;;;;;;5025092;28;20234;-51
2022/10/03 10:08:08;;;;;;;8.70;1.87;;;16.30;1.00;;;;;;5026822;28;20203;-51
2022/10/03 10:10:43;;;;;;;4.57;1.60;;;16.30;1.00;;;;;;5017600;28;20645;-50
2022/10/03 10:13:52;;;;;;;6.00;1.50;;;16.20;99.90;;;;;;5022967;28;20204;-50
2022/10/03 10:16:48;;;;;;;6.10;1.67;;;16.10;16.70;;;;;;5021205;28;20615;-51
2022/10/03 10:19:52;;;;;;;4.80;0.90;;;16.20;99.90;;;;;;5019335;28;20698;-51
2022/10/03 10:22:48;;;;;;;5.20;1.13;;;16.20;1.00;;;;;;5009094;28;20208;-51
2022/10/03 10:25:36;;;;;;;4.13;1.13;;;16.50;30.20;;;;;;5028315;28;20679;-51
2022/10/03 10:28:36;;;;;;;4.73;1.10;;;16.60;1.00;;;;;;5023213;28;20225;-51
2022/10/03 10:31:21;;;;;;;6.53;1.20;;;16.80;1.00;;;;;;5020115;28;20203;-51
2022/10/03 10:34:15;;;;;;;7.17;1.13;;;16.90;1.00;;;;;;5016300;28;20222;-51
2022/10/03 10:37:07;;;;;;;5.07;1.57;;;17.00;1.00;;;;;;5026736;28;20199;-51
2022/10/03 10:39:47;;;;;;;9.07;1.37;;;17.20;1.00;;;;;;5026022;28;20192;-51
2022/10/03 10:42:16;;;;;;;4.67;1.43;;;17.20;99.90;;;;;;5024552;28;20193;-51
2022/10/03 10:45:16;;;;;;;3.70;0.93;;;17.10;99.90;;;;;;5025320;28;20202;-50
2022/10/03 10:47:59;;;;;;;5.20;1.70;;;17.20;99.90;;;;;;5026511;28;20230;-50
2022/10/03 10:50:37;;;;;;;5.83;1.63;;;17.20;99.90;;;;;;5025956;28;20215;-51
2022/10/03 10:53:41;;;;;;;6.33;1.17;;;17.00;99.90;;;;;;5023243;28;20248;-52
2022/10/03 10:56:51;;;;;;;3.37;1.00;;;17.00;99.90;;;;;;5019824;28;20205;-51
2022/10/03 10:59:46;;;;;;;3.83;0.97;;;17.00;99.90;;;;;;5017412;28;20298;-51
2022/10/03 11:02:33;;;;;;;2.53;0.90;;;17.00;99.90;;;;;;5022470;28;20235;-51
2022/10/03 11:05:28;;;;;;;4.20;0.80;;;16.90;54.00;;;;;;5021090;28;20191;-50
2022/10/03 11:08:20;;;;;;;4.43;1.13;;;17.10;99.90;;;;;;5023456;28;20194;-50
2022/10/03 11:11:28;;;;;;;5.27;0.90;;;17.00;99.90;;;;;;5021226;28;20213;-51
2022/10/03 11:14:39;;;;;;;4.73;0.87;;;17.10;99.90;;;;;;5017535;28;20320;-49
2022/10/03 11:17:25;;;;;;;2.10;0.87;;;17.30;1.00;;;;;;5014799;28;20200;-50
2022/10/03 11:20:13;;;;;;;4.80;1.10;;;17.30;93.80;;;;;;5022754;28;20206;-49
2022/10/03 11:22:58;;;;;;;8.30;1.23;;;17.20;3.80;;;;;;5025255;28;20206;-50
2022/10/03 11:26:03;;;;;;;3.50;1.00;;;17.30;91.50;;;;;;5024938;28;20197;-51
2022/10/03 11:29:08;;;;;;;6.03;1.00;;;17.40;1.00;;;;;;5019747;28;20950;-51
2022/10/03 11:32:19;;;;;;;7.07;1.73;;;17.50;1.00;;;;;;5024538;28;20685;-51
2022/10/03 11:35:12;;;;;;;2.47;0.90;;;17.90;1.00;;;;;;5019704;28;20223;-51
2022/10/03 11:37:49;;;;;;;5.30;1.23;;;17.70;1.00;;;;;;5020941;28;20204;-52
2022/10/03 11:40:31;;;;;;;4.60;0.90;;;17.60;1.00;;;;;;5021242;28;20650;-52
2022/10/03 11:43:53;;;;;;;3.77;1.00;;;17.90;1.00;;;;;;5013652;28;20212;-52
2022/10/03 11:46:38;;;;;;;3.10;1.17;;;18.40;1.00;;;;;;4961589;28;20213;-52
2022/10/03 11:49:15;;;;;;;12.20;3.10;;;19.10;1.00;;;;;;4956461;28;20214;-52
2022/10/03 11:51:49;;;;;;;5.83;1.40;;;19.10;1.00;;;;;;4961497;28;20209;-52
2022/10/03 11:54:33;;;;;;;4.00;0.97;;;19.60;1.00;;;;;;4959426;28;20706;-53
2022/10/03 11:57:25;;;;;;;7.77;1.30;;;19.40;99.90;;;;;;4953458;28;20210;-52
2022/10/03 12:00:14;;;;;;;6.67;2.03;;;19.50;99.90;;;;;;4950985;28;20214;-52
2022/10/03 12:03:26;;;;;;;3.90;1.47;;;19.40;99.90;;;;;;4959410;28;20274;-52
2022/10/03 12:09:26;;;;;;;7.00;0.97;;;19.70;99.90;;;;;;4955522;28;20217;-53
2022/10/03 12:12:26;;;;;;;4.17;1.20;;;19.50;99.90;;;;;;4943520;28;20427;-53
2022/10/03 12:15:00;;;;;;;3.17;1.00;;;19.40;99.90;;;;;;4953000;28;20745;-52
2022/10/03 12:17:36;;;;;;;4.40;0.97;;;19.40;99.90;;;;;;4958614;28;20246;-53
2022/10/03 12:20:03;;;;;;;6.63;0.93;;;19.50;99.90;;;;;;4985473;28;20195;-52
2022/10/03 12:22:54;;;;;;;7.77;1.33;;;20.10;99.90;;;;;;5025060;28;20287;-53
2022/10/03 12:25:29;;;;;;;7.47;1.20;;;20.10;99.90;;;;;;5014833;28;20243;-53
2022/10/03 12:28:10;;;;;;;6.33;1.60;;;20.20;99.90;;;;;;5018376;28;20196;-52
2022/10/03 12:30:41;;;;;;;3.37;1.10;;;20.50;99.90;;;;;;5013681;28;20201;-52
2022/10/03 12:33:39;;;;;;;3.50;0.93;;;20.70;99.90;;;;;;5027812;28;20200;-53
2022/10/03 12:36:14;;;;;;;3.30;1.23;;;20.40;39.60;;;;;;5010900;28;20220;-52
2022/10/03 12:39:03;;;;;;;7.07;0.90;;;20.10;99.90;;;;;;5023387;28;20629;-53
2022/10/03 12:41:52;;;;;;;4.57;1.60;;;20.10;81.10;;;;;;5015261;28;20304;-54
2022/10/03 12:44:39;;;;;;;4.10;0.93;;;19.80;99.90;;;;;;5018943;28;20215;-52
2022/10/03 12:47:24;;;;;;;5.10;0.90;;;19.30;99.90;;;;;;5015032;28;20207;-51
2022/10/03 12:50:32;;;;;;;5.77;1.23;;;19.30;99.90;;;;;;5015126;28;20224;-52
2022/10/03 12:53:14;;;;;;;5.93;1.40;;;19.30;99.90;;;;;;5019438;28;20244;-53
2022/10/03 12:56:06;;;;;;;5.93;1.00;;;19.20;99.90;;;;;;5022843;28;20215;-52
2022/10/03 12:58:38;;;;;;;4.90;1.60;;;19.20;99.90;;;;;;5017696;28;20200;-52
2022/10/03 13:01:41;;;;;;;4.13;2.50;;;19.30;99.90;;;;;;5018734;28;20231;-51
2022/10/03 13:04:28;;;;;;;6.00;1.27;;;18.90;99.90;;;;;;5019755;28;20575;-53
2022/10/03 13:07:17;;;;;;;4.03;1.13;;;18.60;99.90;;;;;;5021392;28;20268;-52
2022/10/03 13:10:14;;;;;;;3.63;0.90;;;18.60;99.90;;;;;;5019784;28;20207;-52
2022/10/03 13:12:51;;;;;;;6.53;1.20;;;18.50;99.90;;;;;;5020395;28;20569;-52
2022/10/03 13:15:18;;;;;;;3.93;1.00;;;18.50;99.90;;;;;;5020083;28;20204;-52
2022/10/03 13:18:08;;;;;;;3.13;1.23;;;18.60;99.90;;;;;;5020903;28;20197;-52
2022/10/03 13:20:42;;;;;;;5.17;1.37;;;18.50;1.00;;;;;;5019821;28;20232;-55
2022/10/03 13:23:40;;;;;;;6.73;1.50;;;18.40;99.90;;;;;;5017016;28;20202;-52
2022/10/03 13:26:24;;;;;;;3.07;1.10;;;18.30;99.90;;;;;;5016569;28;20206;-52
2022/10/03 13:29:29;;;;;;;4.40;1.00;;;18.30;99.90;;;;;;5012409;28;20208;-53
2022/10/03 13:32:11;;;;;;;4.50;0.80;;;18.30;1.00;;;;;;5018399;28;20215;-52
2022/10/03 13:34:56;;;;;;;6.67;1.50;;;18.50;1.00;;;;;;5006282;28;20319;-52
2022/10/03 13:37:49;;;;;;;2.80;1.00;;;18.50;1.00;;;;;;5016773;28;20198;-52
2022/10/03 13:40:17;;;;;;;3.43;1.17;;;18.40;1.00;;;;;;5019923;28;20205;-52
2022/10/03 13:42:52;;;;;;;6.67;1.23;;;18.50;1.00;;;;;;5014786;28;20201;-52
2022/10/03 13:45:25;;;;;;;4.87;1.30;;;18.60;1.00;;;;;;5019478;28;20203;-52
2022/10/03 13:48:00;;;;;;;4.07;1.13;;;18.40;1.00;;;;;;5019959;28;20557;-52
2022/10/03 13:50:44;;;;;;;5.67;1.30;;;18.50;1.00;;;;;;5014144;28;20207;-52
2022/10/03 13:53:38;;;;;;;4.10;1.40;;;18.40;1.00;;;;;;5017256;28;20236;-50
2022/10/03 13:56:20;;;;;;;2.77;1.50;;;18.30;1.00;;;;;;5013324;28;20582;-52
2022/10/03 13:58:58;;;;;;;3.57;1.23;;;18.20;1.00;;;;;;5017870;28;20629;-52
2022/10/03 14:01:45;;;;;;;5.87;1.33;;;18.20;1.00;;;;;;5009027;28;20235;-52
2022/10/03 14:04:27;;;;;;;6.17;1.87;;;17.90;1.00;;;;;;5019192;28;20228;-52
2022/10/03 14:07:06;;;;;;;6.40;1.47;;;18.00;1.00;;;;;;5013437;28;20588;-52
2022/10/03 14:09:45;;;;;;;7.57;1.60;;;18.00;1.00;;;;;;5018446;28;20215;-52
2022/10/03 14:12:48;;;;;;;6.83;1.50;;;17.90;1.00;;;;;;5018786;28;20288;-53
2022/10/03 14:15:42;;;;;;;4.30;1.60;;;18.00;22.80;;;;;;5010385;28;20237;-52
2022/10/03 14:18:36;;;;;;;12.13;1.90;;;18.10;99.90;;;;;;5020306;28;20731;-53
2022/10/03 14:21:28;;;;;;;7.03;1.80;;;17.90;99.90;;;;;;5026862;28;20645;-51
2022/10/03 14:24:15;;;;;;;4.57;1.63;;;17.90;99.90;;;;;;5028626;28;20194;-53
2022/10/03 14:26:48;;;;;;;8.33;1.80;;;17.80;99.90;;;;;;5027733;28;20200;-52
2022/10/03 14:29:32;;;;;;;9.33;3.00;;;17.90;99.90;;;;;;5024417;28;20655;-52
2022/10/03 14:32:23;;;;;;;5.37;1.93;;;17.90;99.90;;;;;;5021559;28;20206;-51
2022/10/03 14:35:39;;;;;;;5.90;1.70;;;17.90;99.90;;;;;;5019016;28;20604;-53
2022/10/03 14:41:31;;;;;;;8.00;2.10;;;17.80;99.90;;;;;;5009386;28;20286;-52
2022/10/03 14:44:04;;;;;;;7.67;2.37;;;17.80;99.90;;;;;;5016212;28;20210;-52
2022/10/03 14:46:45;;;;;;;8.10;1.60;;;17.80;99.90;;;;;;5016781;28;20226;-53
2022/10/03 14:49:26;;;;;;;8.17;2.37;;;17.50;1.00;;;;;;5019500;28;20208;-52
2022/10/03 14:52:44;;;;;;;7.87;1.83;;;17.50;1.00;;;;;;5016465;28;20227;-52
2022/10/03 14:55:24;;;;;;;7.87;1.67;;;17.60;1.00;;;;;;5015116;28;20643;-53